Time;durP1;ratioP1;P1;durP2;ratioP2;P2;SDS_P1;SDS_P2;PMS_P1;PMS_P2;Temp;Humidity;BMP_temperature;BMP_pressure;BME280_temperature;BME280_humidity;BME280_pressure;Samples;Min_cycle;Max_cycle;Signal;HPM_P1;HPM_P2
2022/09/10 00:00:33;;;;;;;0.50;0.50;;;11.40;99.90;;;;;;4811834;29;20053;-84
2022/09/10 00:03:16;;;;;;;0.40;0.40;;;11.40;99.90;;;;;;4828232;29;20051;-84
2022/09/10 00:06:17;;;;;;;0.50;0.50;;;11.40;99.90;;;;;;4809644;29;20524;-84
2022/09/10 00:09:00;;;;;;;0.47;0.47;;;11.40;99.90;;;;;;4797372;29;20042;-84
2022/09/10 00:11:37;;;;;;;0.60;0.50;;;11.30;99.90;;;;;;4796009;29;20065;-84
2022/09/10 00:14:20;;;;;;;0.47;0.47;;;11.30;99.90;;;;;;4810083;29;20069;-84
2022/09/10 00:16:54;;;;;;;0.30;0.30;;;11.30;99.90;;;;;;4774570;29;20047;-84
2022/09/10 00:19:34;;;;;;;;;;;11.30;99.90;;;;;;4790923;29;20059;-84
2022/09/10 00:22:09;;;;;;;0.70;0.50;;;11.10;99.90;;;;;;4765682;29;20439;-84
2022/09/10 00:48:37;;;;;;;0.47;0.47;;;10.90;99.90;;;;;;4858746;29;20049;-84
2022/09/10 00:52:06;;;;;;;0.55;0.55;;;11.10;99.90;;;;;;4844865;29;20068;-84
2022/09/10 00:55:07;;;;;;;1.65;0.55;;;10.90;99.90;;;;;;4818101;29;20057;-84
2022/09/10 00:57:45;;;;;;;0.40;0.40;;;10.90;99.90;;;;;;4819006;29;20041;-84
2022/09/10 01:00:25;;;;;;;0.40;0.40;;;10.90;99.90;;;;;;4805071;29;20056;-84
2022/09/10 01:03:07;;;;;;;2.50;2.30;;;10.90;99.90;;;;;;4827584;29;20053;-83
2022/09/10 01:05:41;;;;;;;1.85;0.82;;;10.90;99.90;;;;;;4812925;29;20053;-83
2022/09/10 01:08:14;;;;;;;0.47;0.47;;;10.90;99.90;;;;;;4825152;29;20053;-83
2022/09/10 01:11:21;;;;;;;0.88;0.70;;;11.00;99.90;;;;;;4798308;29;20050;-83
2022/09/10 01:14:17;;;;;;;;;;;10.90;99.90;;;;;;4810691;29;20438;-83
2022/09/10 01:17:08;;;;;;;0.93;0.93;;;10.90;99.90;;;;;;4827209;29;19947;-83
2022/09/10 01:20:42;;;;;;;1.10;1.00;;;10.80;99.90;;;;;;4815805;29;20042;-83
2022/09/10 01:23:56;;;;;;;0.70;0.70;;;10.90;99.90;;;;;;4825401;29;20057;-84
2022/09/10 01:26:49;;;;;;;0.82;0.70;;;10.70;99.90;;;;;;4795466;29;20057;-83
2022/09/10 01:29:36;;;;;;;1.08;0.98;;;10.50;99.90;;;;;;4809401;29;20049;-83
2022/09/10 01:32:16;;;;;;;1.00;0.82;;;10.30;99.90;;;;;;4795416;29;20053;-84
2022/09/10 01:35:10;;;;;;;6.57;1.67;;;10.30;99.90;;;;;;4796112;29;20050;-83
2022/09/10 01:37:58;;;;;;;0.80;0.80;;;10.30;99.90;;;;;;4809456;29;20440;-84
2022/09/10 01:40:30;;;;;;;1.02;0.75;;;10.20;99.90;;;;;;4809729;29;20042;-83
2022/09/10 01:43:11;;;;;;;1.05;1.05;;;10.20;99.90;;;;;;4810668;29;20089;-83
2022/09/10 01:46:17;;;;;;;0.90;0.82;;;10.20;99.90;;;;;;4809887;29;20053;-83
2022/09/10 01:49:12;;;;;;;0.55;0.55;;;10.20;99.90;;;;;;4791387;29;20039;-83
2022/09/10 01:52:02;;;;;;;0.75;0.70;;;10.20;99.90;;;;;;4820823;29;20054;-83
2022/09/10 01:54:51;;;;;;;6.90;0.60;;;10.10;99.90;;;;;;4792144;29;20046;-83
2022/09/10 01:57:32;;;;;;;0.50;0.50;;;10.10;99.90;;;;;;4806575;29;20054;-84
2022/09/10 02:00:13;;;;;;;0.70;0.70;;;10.10;99.90;;;;;;4793286;29;20046;-83
2022/09/10 02:03:06;;;;;;;0.70;0.70;;;10.10;99.90;;;;;;4810928;29;20798;-83
2022/09/10 02:05:38;;;;;;;0.50;0.50;;;10.10;99.90;;;;;;4810460;29;20054;-83
2022/09/10 02:11:29;;;;;;;0.60;0.60;;;10.00;99.90;;;;;;4796136;29;20054;-83
2022/09/10 02:14:00;;;;;;;4.10;1.17;;;10.10;99.90;;;;;;4794991;29;20061;-83
2022/09/10 02:17:00;;;;;;;0.60;0.60;;;10.10;99.90;;;;;;4809808;29;20042;-82
2022/09/10 02:19:44;;;;;;;0.70;0.70;;;10.10;99.90;;;;;;4794181;29;20421;-83
2022/09/10 02:22:14;;;;;;;1.00;1.00;;;10.10;99.90;;;;;;4795541;29;20058;-83
2022/09/10 02:25:03;;;;;;;0.70;0.70;;;10.20;99.90;;;;;;4782105;29;20054;-83
2022/09/10 02:27:32;;;;;;;3.60;1.20;;;10.20;99.90;;;;;;4780642;29;20654;-83
2022/09/10 02:30:05;;;;;;;1.00;0.85;;;10.30;99.90;;;;;;4794821;29;20062;-84
2022/09/10 02:32:46;;;;;;;2.38;0.85;;;10.40;99.90;;;;;;4781294;29;20061;-83
2022/09/10 02:35:17;;;;;;;1.55;0.80;;;10.50;99.90;;;;;;4810828;29;20058;-83
2022/09/10 02:37:50;;;;;;;2.35;0.85;;;10.50;99.90;;;;;;4795291;29;20057;-83
2022/09/10 02:40:21;;;;;;;0.80;0.80;;;10.60;99.90;;;;;;4793832;29;20584;-84
2022/09/10 02:42:59;;;;;;;2.53;0.70;;;10.60;99.90;;;;;;4780276;29;20061;-83
2022/09/10 02:45:29;;;;;;;2.65;0.93;;;10.60;99.90;;;;;;4779743;29;20287;-83
2022/09/10 02:48:03;;;;;;;0.90;0.90;;;10.70;99.90;;;;;;4806335;29;20075;-83
2022/09/10 02:50:45;;;;;;;0.75;0.75;;;10.70;99.90;;;;;;4828146;29;20417;-83
2022/09/10 02:53:19;;;;;;;0.93;0.85;;;10.70;99.90;;;;;;4789855;29;20056;-83
2022/09/10 02:55:51;;;;;;;0.60;0.52;;;10.60;99.90;;;;;;4813026;29;20042;-83
2022/09/10 02:58:22;;;;;;;;;;;10.60;99.90;;;;;;4813073;29;20056;-83
2022/09/10 03:00:50;;;;;;;0.95;0.85;;;10.60;99.90;;;;;;4812286;29;19935;-83
2022/09/10 03:03:18;;;;;;;0.85;0.85;;;10.50;99.90;;;;;;4813125;29;20061;-83
2022/09/10 03:05:55;;;;;;;0.80;0.80;;;10.50;99.90;;;;;;4797488;29;20587;-83
2022/09/10 03:08:24;;;;;;;0.60;0.60;;;10.40;99.90;;;;;;4811903;29;20049;-83
2022/09/10 03:10:52;;;;;;;0.93;0.73;;;10.40;99.90;;;;;;4794576;29;20062;-83
2022/09/10 03:13:23;;;;;;;1.35;1.02;;;10.30;99.90;;;;;;4808828;29;20520;-83
2022/09/10 03:15:51;;;;;;;0.70;0.70;;;10.10;99.90;;;;;;4794308;29;20054;-83
2022/09/10 03:18:23;;;;;;;0.80;0.80;;;10.20;99.90;;;;;;4793966;29;20051;-82
2022/09/10 03:20:50;;;;;;;;;;;10.10;99.90;;;;;;4809211;29;20050;-83
2022/09/10 03:23:18;;;;;;;0.60;0.60;;;10.10;99.90;;;;;;4794489;29;20406;-83
2022/09/10 03:25:46;;;;;;;3.85;0.70;;;9.90;99.90;;;;;;4823793;29;20062;-82
2022/09/10 03:28:23;;;;;;;3.22;0.60;;;9.80;99.90;;;;;;4795165;29;20042;-83
2022/09/10 03:30:51;;;;;;;0.90;0.90;;;9.70;99.90;;;;;;4794451;29;20087;-82
2022/09/10 03:33:20;;;;;;;2.15;0.90;;;9.70;99.90;;;;;;4808547;29;20050;-84
2022/09/10 03:35:55;;;;;;;1.08;1.08;;;9.80;99.90;;;;;;4808961;29;20408;-83
2022/09/10 03:38:28;;;;;;;0.80;0.80;;;9.80;99.90;;;;;;4807853;29;20389;-83
2022/09/10 03:40:57;;;;;;;0.60;0.60;;;9.80;99.90;;;;;;4823601;29;20045;-83
2022/09/10 03:43:28;;;;;;;0.70;0.70;;;9.50;99.90;;;;;;4809482;29;20054;-83
2022/09/10 03:45:57;;;;;;;0.60;0.60;;;9.50;99.90;;;;;;4823999;29;20054;-83
2022/09/10 03:48:25;;;;;;;0.85;0.80;;;9.40;99.90;;;;;;4822765;29;20074;-83
2022/09/10 03:50:54;;;;;;;1.15;0.73;;;9.30;99.90;;;;;;4809283;29;20413;-83
2022/09/10 03:53:22;;;;;;;2.30;0.80;;;9.30;99.90;;;;;;4840419;29;20404;-83
2022/09/10 03:56:02;;;;;;;0.80;0.80;;;9.30;99.90;;;;;;4841326;29;20046;-83
2022/09/10 03:58:37;;;;;;;0.88;0.88;;;9.40;99.90;;;;;;4811706;29;20050;-83
2022/09/10 04:01:07;;;;;;;0.85;0.85;;;9.40;99.90;;;;;;4812225;29;20555;-83
2022/09/10 04:03:40;;;;;;;0.85;0.85;;;9.40;99.90;;;;;;4826076;29;20057;-82
2022/09/10 04:06:15;;;;;;;1.38;0.93;;;9.50;99.90;;;;;;4796394;29;20056;-83
2022/09/10 04:08:43;;;;;;;2.45;0.82;;;9.50;99.90;;;;;;4825558;29;20050;-83
2022/09/10 04:11:14;;;;;;;1.08;0.80;;;9.50;99.90;;;;;;4811745;29;20746;-83
2022/09/10 04:13:47;;;;;;;0.77;0.77;;;9.50;99.90;;;;;;4796281;29;20050;-83
2022/09/10 04:16:16;;;;;;;0.90;0.90;;;9.50;99.90;;;;;;4826553;29;20061;-83
2022/09/10 04:18:45;;;;;;;1.80;1.70;;;9.50;99.90;;;;;;4811501;29;20054;-83
2022/09/10 04:21:16;;;;;;;1.38;1.30;;;9.50;99.90;;;;;;4810942;29;20061;-84
2022/09/10 04:23:46;;;;;;;1.45;1.35;;;9.60;99.90;;;;;;4810271;29;20061;-83
2022/09/10 04:26:18;;;;;;;1.27;1.17;;;9.70;99.90;;;;;;4826479;29;20058;-82
2022/09/10 04:28:48;;;;;;;0.88;0.88;;;9.60;99.90;;;;;;4810489;29;20053;-83
2022/09/10 04:31:17;;;;;;;1.48;0.80;;;9.60;99.90;;;;;;4796409;29;20404;-83
2022/09/10 04:33:46;;;;;;;1.13;1.02;;;9.60;99.90;;;;;;4811598;29;20803;-83
2022/09/10 04:36:19;;;;;;;0.80;0.80;;;9.60;99.90;;;;;;4840432;29;20041;-83
2022/09/10 04:38:47;;;;;;;0.60;0.60;;;9.60;99.90;;;;;;4826006;29;20054;-83
2022/09/10 04:41:18;;;;;;;0.80;0.80;;;9.70;99.90;;;;;;4826020;29;20543;-83
2022/09/10 04:43:47;;;;;;;1.38;1.10;;;9.70;99.90;;;;;;4810634;29;20050;-82
2022/09/10 04:46:16;;;;;;;0.68;0.68;;;9.70;99.90;;;;;;4811224;29;20053;-83
2022/09/10 04:48:45;;;;;;;2.08;0.70;;;9.70;99.90;;;;;;4810458;29;20511;-83
2022/09/10 04:51:17;;;;;;;1.23;1.13;;;9.70;99.90;;;;;;4796450;29;20053;-83
2022/09/10 04:53:52;;;;;;;0.85;0.85;;;9.80;99.90;;;;;;4796002;29;20507;-83
2022/09/10 04:56:25;;;;;;;0.75;0.75;;;9.80;99.90;;;;;;4824612;29;20049;-83
2022/09/10 04:58:56;;;;;;;0.80;0.80;;;9.90;99.90;;;;;;4822267;29;20699;-83
2022/09/10 05:01:26;;;;;;;0.82;0.82;;;9.90;99.90;;;;;;4824767;29;20057;-83
2022/09/10 05:03:56;;;;;;;1.35;1.02;;;9.90;99.90;;;;;;4795149;29;20065;-83
2022/09/10 05:06:24;;;;;;;1.50;1.40;;;9.90;99.90;;;;;;4806804;29;20054;-83
2022/09/10 05:08:53;;;;;;;0.98;0.98;;;9.80;99.90;;;;;;4808220;29;20041;-83
2022/09/10 05:11:22;;;;;;;0.88;0.88;;;9.90;99.90;;;;;;4815366;29;20054;-83
2022/09/10 05:13:54;;;;;;;2.65;1.27;;;9.90;99.90;;;;;;4822185;29;20042;-83
2022/09/10 05:16:25;;;;;;;3.13;0.85;;;10.00;99.90;;;;;;4824682;29;20050;-83
2022/09/10 05:18:55;;;;;;;2.63;0.95;;;10.00;99.90;;;;;;4810227;29;20508;-83
2022/09/10 05:21:25;;;;;;;0.85;0.85;;;10.10;99.90;;;;;;4808636;29;20042;-83
2022/09/10 05:24:01;;;;;;;1.65;1.58;;;10.20;99.90;;;;;;4795305;29;20433;-83
2022/09/10 05:26:29;;;;;;;1.05;0.95;;;10.30;99.90;;;;;;4808878;29;20415;-84
2022/09/10 05:29:10;;;;;;;0.88;0.88;;;10.30;99.90;;;;;;4826217;29;20830;-84
2022/09/10 05:31:39;;;;;;;0.85;0.85;;;10.40;99.90;;;;;;4810338;29;20061;-83
2022/09/10 05:34:09;;;;;;;0.80;0.80;;;10.40;99.90;;;;;;4794169;29;20046;-84
2022/09/10 05:36:39;;;;;;;0.77;0.77;;;10.40;99.90;;;;;;4794985;29;20287;-84
2022/09/10 05:39:11;;;;;;;0.70;0.70;;;10.50;99.90;;;;;;4794812;29;20545;-83
2022/09/10 05:41:42;;;;;;;2.97;1.52;;;10.60;99.90;;;;;;4809808;29;20404;-85
2022/09/10 05:44:10;;;;;;;1.35;0.95;;;10.60;99.90;;;;;;4819567;24;20045;-83
2022/09/10 05:46:39;;;;;;;1.10;0.95;;;10.80;99.90;;;;;;4839658;29;20057;-88
2022/09/10 05:49:30;;;;;;;6.65;2.17;;;10.90;99.90;;;;;;4814929;29;20056;-87
2022/09/10 05:52:13;;;;;;;1.00;1.00;;;11.10;99.90;;;;;;4817852;29;20065;-88
2022/09/10 05:54:51;;;;;;;0.68;0.68;;;11.20;99.90;;;;;;4820425;29;20065;-87
2022/09/10 05:57:19;;;;;;;2.13;1.08;;;11.30;99.90;;;;;;4825624;29;20045;-88
2022/09/10 05:59:47;;;;;;;1.45;1.35;;;11.30;99.90;;;;;;4812223;29;20404;-87
2022/09/10 06:02:17;;;;;;;0.98;0.98;;;11.30;99.90;;;;;;4819322;29;20080;-87
2022/09/10 06:04:50;;;;;;;1.90;0.98;;;11.40;99.90;;;;;;4827353;29;20054;-87
2022/09/10 06:07:19;;;;;;;0.77;0.77;;;11.40;99.90;;;;;;4812959;29;20412;-87
2022/09/10 06:09:50;;;;;;;0.82;0.75;;;11.50;99.90;;;;;;4842553;29;20061;-87
2022/09/10 06:12:54;;;;;;;0.75;0.75;;;11.50;99.90;;;;;;4833684;29;20061;-88
2022/09/10 06:15:26;;;;;;;1.75;0.80;;;11.50;99.90;;;;;;4820915;29;20392;-88
2022/09/10 06:22:14;;;;;;;1.30;1.00;;;11.50;99.90;;;;;;4801203;29;20537;-89
2022/09/10 06:25:26;;;;;;;0.60;0.60;;;11.60;99.90;;;;;;4764617;29;20053;-88
2022/09/10 06:53:47;;;;;;;0.70;0.70;;;11.70;99.90;;;;;;4673227;24;20396;-86
2022/09/10 06:56:41;;;;;;;1.50;1.40;;;11.80;99.90;;;;;;4823154;29;20057;-86
2022/09/10 07:04:42;;;;;;;0.80;0.80;;;11.90;99.90;;;;;;4847422;29;20056;-85
2022/09/10 07:07:28;;;;;;;0.70;0.70;;;11.80;99.90;;;;;;4810924;29;20053;-85
2022/09/10 07:14:42;;;;;;;9.38;1.02;;;11.70;99.90;;;;;;4798175;29;20046;-85
2022/09/10 07:17:30;;;;;;;22.13;2.38;;;11.50;99.90;;;;;;4798471;29;20039;-85
2022/09/10 07:20:45;;;;;;;3.60;1.02;;;11.70;99.90;;;;;;4805463;29;20167;-85
2022/09/10 07:23:20;;;;;;;0.85;0.85;;;11.70;99.90;;;;;;4835922;29;20064;-85
2022/09/10 07:26:04;;;;;;;1.05;0.90;;;11.70;99.90;;;;;;4807772;29;20380;-86
2022/09/10 07:28:43;;;;;;;0.90;0.90;;;11.60;99.90;;;;;;4827664;29;20045;-82
2022/09/10 07:31:47;;;;;;;0.70;0.70;;;11.60;99.90;;;;;;4828673;29;20411;-84
2022/09/10 07:34:24;;;;;;;0.68;0.68;;;11.60;99.90;;;;;;4811380;29;20058;-84
2022/09/10 07:36:55;;;;;;;1.17;0.90;;;11.50;99.90;;;;;;4844701;29;20041;-83
2022/09/10 07:39:27;;;;;;;0.82;0.82;;;11.50;99.90;;;;;;4822101;29;20053;-84
2022/09/10 07:42:28;;;;;;;2.80;0.80;;;11.60;99.90;;;;;;4845055;29;20511;-84
2022/09/10 08:07:19;;;;;;;;;;;;;;;;;;;;;
2022/09/10 08:11:47;;;;;;;;;;;;;;;;;;;;;
2022/09/10 08:15:34;;;;;;;0.60;0.60;;;12.40;99.90;;;;;;4736895;30;20100;-82
2022/09/10 08:23:27;;;;;;;2.25;2.15;;;12.60;99.90;;;;;;4703196;30;20569;-82
2022/09/10 08:34:42;;;;;;;0.40;0.40;;;12.70;99.90;;;;;;4717727;30;20422;-81
2022/09/10 08:37:18;;;;;;;0.60;0.60;;;12.60;99.90;;;;;;4792006;29;20051;-81
2022/09/10 08:40:15;;;;;;;0.60;0.60;;;12.60;99.90;;;;;;4803972;29;20051;-81
2022/09/10 08:43:26;;;;;;;0.68;0.65;;;12.50;99.90;;;;;;4791365;29;20055;-81
2022/09/10 08:46:04;;;;;;;8.90;1.48;;;12.50;99.90;;;;;;4804879;29;20050;-81
2022/09/10 08:48:39;;;;;;;10.48;0.73;;;12.60;99.90;;;;;;4800579;29;20066;-81
2022/09/10 08:51:35;;;;;;;1.08;0.82;;;12.50;99.90;;;;;;4788835;29;20047;-82
2022/09/10 09:00:53;;;;;;;0.50;0.50;;;12.50;99.90;;;;;;4778007;30;20050;-82
2022/09/10 09:04:22;;;;;;;0.80;0.80;;;12.50;99.90;;;;;;4783665;29;20058;-83
2022/09/10 09:45:07;;;;;;;0.77;0.77;;;14.20;99.90;;;;;;4664446;30;20609;-83
2022/09/10 09:48:25;;;;;;;0.87;0.80;;;14.50;99.90;;;;;;4751048;29;20047;-82
2022/09/10 09:52:42;;;;;;;0.80;0.80;;;14.60;99.90;;;;;;4680161;30;20130;-82
2022/09/10 09:55:42;;;;;;;1.55;0.88;;;14.50;99.90;;;;;;4784704;29;20066;-82
2022/09/10 09:58:21;;;;;;;0.60;0.60;;;14.60;99.90;;;;;;4764809;30;20062;-82
2022/09/10 10:01:45;;;;;;;0.60;0.60;;;14.50;99.90;;;;;;4774387;29;20054;-83
2022/09/10 10:05:06;;;;;;;0.65;0.65;;;14.50;99.90;;;;;;4763277;29;20060;-81
2022/09/10 10:07:58;;;;;;;1.55;1.45;;;14.50;99.90;;;;;;4742761;29;20746;-81
2022/09/10 10:21:52;;;;;;;;;;;;;;;;;;;;;
2022/09/10 10:30:40;;;;;;;1.15;1.13;;;13.80;99.90;;;;;;4763805;30;20422;-82
2022/09/10 10:33:56;;;;;;;;;;;13.90;99.90;;;;;;4766760;29;20057;-83
2022/09/10 10:37:08;;;;;;;0.80;0.80;;;13.70;99.90;;;;;;4746294;29;19937;-85
2022/09/10 10:45:30;;;;;;;0.90;0.90;;;13.30;99.90;;;;;;4765770;30;20743;-84
2022/09/10 10:48:43;;;;;;;1.10;1.00;;;13.20;99.90;;;;;;4754754;30;20054;-85
2022/09/10 10:51:23;;;;;;;0.67;0.67;;;13.40;99.90;;;;;;4796703;29;20063;-84
2022/09/10 10:54:30;;;;;;;2.47;0.90;;;13.30;99.90;;;;;;4781675;29;20053;-81
2022/09/10 10:57:01;;;;;;;0.73;0.73;;;13.10;99.90;;;;;;4792674;29;20433;-82
2022/09/10 10:59:43;;;;;;;0.53;0.53;;;13.00;99.90;;;;;;4808416;29;20046;-82
2022/09/10 11:02:23;;;;;;;0.55;0.55;;;12.90;99.90;;;;;;4779054;29;20073;-81
2022/09/10 11:04:53;;;;;;;0.60;0.60;;;12.80;99.90;;;;;;4778937;29;20413;-82
2022/09/10 11:07:30;;;;;;;0.73;0.73;;;12.80;99.90;;;;;;4816772;29;20164;-82
2022/09/10 11:10:41;;;;;;;0.63;0.63;;;12.80;99.90;;;;;;4781651;29;20051;-82
2022/09/10 11:13:21;;;;;;;0.95;0.90;;;12.80;99.90;;;;;;4788292;29;20416;-83
2022/09/10 11:16:11;;;;;;;0.90;0.90;;;12.90;99.90;;;;;;4824386;29;20061;-83
2022/09/10 11:18:48;;;;;;;0.60;0.60;;;12.90;99.90;;;;;;4814220;29;20076;-82
2022/09/10 11:21:37;;;;;;;2.53;0.90;;;12.90;99.90;;;;;;4818580;29;20054;-83
2022/09/10 11:24:28;;;;;;;3.38;1.25;;;13.10;99.90;;;;;;4828903;29;20050;-82
2022/09/10 11:27:08;;;;;;;0.60;0.60;;;13.20;99.90;;;;;;4819213;29;20416;-83
2022/09/10 11:30:02;;;;;;;0.70;0.70;;;13.40;99.90;;;;;;4845033;29;20046;-81
2022/09/10 11:32:50;;;;;;;0.80;0.80;;;13.70;99.90;;;;;;4828383;29;20061;-81
2022/09/10 11:35:23;;;;;;;4.18;0.73;;;14.20;99.90;;;;;;4819015;29;20065;-82
2022/09/10 11:38:19;;;;;;;0.93;0.70;;;14.40;99.90;;;;;;4803911;29;20714;-83
2022/09/10 11:41:21;;;;;;;1.40;1.40;;;14.60;99.90;;;;;;4815937;29;20049;-83
2022/09/10 11:43:58;;;;;;;0.95;0.80;;;14.70;99.90;;;;;;4853241;29;20053;-83
2022/09/10 11:46:33;;;;;;;1.58;1.08;;;14.90;99.90;;;;;;4828730;29;20042;-84
2022/09/10 11:49:11;;;;;;;1.10;0.80;;;15.00;99.90;;;;;;4818262;29;20045;-83
2022/09/10 11:51:41;;;;;;;0.52;0.50;;;15.10;99.90;;;;;;4800265;29;20778;-83
2022/09/10 11:54:15;;;;;;;0.85;0.85;;;15.30;99.90;;;;;;4803250;29;20050;-82
2022/09/10 11:57:08;;;;;;;0.50;0.50;;;15.50;99.90;;;;;;4817468;29;20047;-84
2022/09/10 12:00:07;;;;;;;1.05;1.00;;;15.60;99.90;;;;;;4816854;29;20066;-85
2022/09/10 12:02:57;;;;;;;0.60;0.60;;;15.60;99.90;;;;;;4780267;29;20404;-84
2022/09/10 12:05:48;;;;;;;;;;;;;;;;;;;;;
2022/09/10 12:08:28;;;;;;;1.23;1.13;;;16.10;99.90;;;;;;4824777;29;20046;-85
2022/09/10 12:11:03;;;;;;;0.70;0.70;;;16.10;99.90;;;;;;4816329;29;20394;-82
2022/09/10 12:17:58;;;;;;;1.80;1.70;;;16.00;99.90;;;;;;4813115;29;20049;-83
2022/09/10 12:21:21;;;;;;;0.80;0.80;;;16.00;99.90;;;;;;4783080;29;20055;-83
2022/09/10 12:25:14;;;;;;;1.77;1.40;;;16.00;99.90;;;;;;4786624;29;20070;-84
2022/09/10 12:33:11;;;;;;;1.38;1.00;;;15.80;99.90;;;;;;4830693;23;20065;-84
2022/09/10 12:35:48;;;;;;;0.60;0.60;;;15.70;99.90;;;;;;4830906;29;20049;-84
2022/09/10 12:38:53;;;;;;;2.08;0.85;;;15.60;99.90;;;;;;4842760;29;20061;-84
2022/09/10 12:41:34;;;;;;;0.93;0.70;;;15.50;99.90;;;;;;4805238;29;20057;-85
2022/09/10 12:45:08;;;;;;;0.98;0.50;;;15.50;99.90;;;;;;4851193;29;20060;-84
2022/09/10 12:53:30;;;;;;;3.53;0.90;;;15.90;99.90;;;;;;4829733;29;20061;-86
2022/09/10 12:56:27;;;;;;;0.50;0.50;;;16.10;99.90;;;;;;4827075;29;20068;-86
2022/09/10 13:00:40;;;;;;;3.55;0.70;;;16.00;99.90;;;;;;4773353;29;20058;-87
2022/09/10 13:11:54;;;;;;;;;;;;;;;;;;;;;
2022/09/10 13:54:30;;;;;;;0.50;0.50;;;17.90;99.90;;;;;;4847940;29;20292;-87
2022/09/10 13:59:11;;;;;;;1.95;0.50;;;18.00;99.90;;;;;;4736921;30;20043;-87
2022/09/10 14:07:31;;;;;;;1.25;0.55;;;17.10;99.90;;;;;;5005040;24;20053;-86
2022/09/10 14:11:35;;;;;;;1.23;0.50;;;16.60;99.90;;;;;;4735527;29;20056;-86
2022/09/10 14:19:49;;;;;;;1.30;1.20;;;16.50;99.90;;;;;;4637786;30;20043;-87
2022/09/10 14:41:27;;;;;;;4.03;0.50;;;16.60;99.90;;;;;;4829892;29;20076;-89
2022/09/10 14:50:18;;;;;;;0.57;0.57;;;17.50;99.90;;;;;;4778903;29;20067;-86
2022/09/10 14:54:23;;;;;;;2.75;1.77;;;17.20;99.90;;;;;;4773778;29;20061;-87
2022/09/10 15:48:58;;;;;;;0.30;0.30;;;18.00;99.90;;;;;;4883859;24;20048;-87
2022/09/10 16:00:27;;;;;;;0.88;0.52;;;16.60;99.90;;;;;;5093339;23;20061;-87
2022/09/10 16:13:07;;;;;;;;;;;15.90;99.90;;;;;;4771198;29;20409;-87
2022/09/10 16:17:20;;;;;;;4.03;0.55;;;15.80;99.90;;;;;;4874170;29;19924;-83
2022/09/10 16:19:53;;;;;;;2.20;0.75;;;15.50;99.90;;;;;;4861433;29;20057;-87
2022/09/10 16:22:21;;;;;;;1.10;0.40;;;15.10;99.90;;;;;;4871101;23;20061;-82
2022/09/10 16:24:51;;;;;;;0.43;0.43;;;14.60;99.90;;;;;;4861294;29;20413;-85
2022/09/10 16:35:20;;;;;;;0.90;0.70;;;13.40;99.90;;;;;;4780406;29;20665;-85
2022/09/10 16:37:54;;;;;;;0.50;0.43;;;13.30;99.90;;;;;;4803299;29;20074;-82
2022/09/10 16:40:31;;;;;;;0.30;0.30;;;13.00;99.90;;;;;;4807000;29;20058;-83
2022/09/10 16:43:02;;;;;;;0.85;0.77;;;13.00;99.90;;;;;;4803963;29;20058;-83
2022/09/10 16:59:30;;;;;;;0.85;0.85;;;12.90;99.90;;;;;;5107174;24;20048;-83
2022/09/10 18:01:56;;;;;;;;;;;;;;;;;;;;;
2022/09/10 18:05:26;;;;;;;1.52;1.42;;;12.70;99.90;;;;;;4754876;29;20062;-84
2022/09/10 18:14:07;;;;;;;5.60;0.45;;;12.70;99.90;;;;;;4796085;29;20046;-83
2022/09/10 18:17:21;;;;;;;0.80;0.80;;;12.60;99.90;;;;;;4768111;29;21593;-84
2022/09/10 18:20:59;;;;;;;0.60;0.60;;;12.50;99.90;;;;;;4710538;30;20053;-84
2022/09/10 18:24:15;;;;;;;0.65;0.50;;;12.40;99.90;;;;;;4705068;30;20056;-84
2022/09/10 18:27:41;;;;;;;0.52;0.52;;;12.40;99.90;;;;;;4670482;30;20058;-84
2022/09/10 18:31:15;;;;;;;0.45;0.45;;;12.20;99.90;;;;;;4719234;29;20054;-84
2022/09/10 18:34:35;;;;;;;1.45;0.70;;;12.20;99.90;;;;;;4738845;30;20048;-84
2022/09/10 18:38:07;;;;;;;0.70;0.70;;;12.10;99.90;;;;;;4703591;30;20842;-84
2022/09/10 18:40:56;;;;;;;0.50;0.50;;;12.10;99.90;;;;;;4704589;30;20041;-84
2022/09/10 18:44:04;;;;;;;0.50;0.50;;;12.00;99.90;;;;;;4692568;30;20049;-85
2022/09/10 18:51:56;;;;;;;0.60;0.60;;;12.20;99.90;;;;;;4672222;30;20065;-84
2022/09/10 18:55:54;;;;;;;0.40;0.40;;;12.00;99.90;;;;;;4693809;30;20174;-84
2022/09/10 18:59:41;;;;;;;0.40;0.40;;;11.80;99.90;;;;;;4720585;30;20376;-83
2022/09/10 19:02:48;;;;;;;0.70;0.68;;;11.70;99.90;;;;;;4807773;29;20054;-84
2022/09/10 19:05:51;;;;;;;2.08;0.98;;;11.60;99.90;;;;;;4810438;29;20591;-84
2022/09/10 19:09:23;;;;;;;0.55;0.40;;;11.70;99.90;;;;;;4800026;29;20185;-84
2022/09/10 19:12:50;;;;;;;0.75;0.75;;;11.70;99.90;;;;;;4809730;29;20054;-84
2022/09/10 19:16:20;;;;;;;0.82;0.70;;;11.60;99.90;;;;;;4814601;29;20854;-84
2022/09/10 19:19:24;;;;;;;0.52;0.52;;;11.50;99.90;;;;;;4847107;29;20705;-84
2022/09/10 19:22:36;;;;;;;0.52;0.52;;;11.50;99.90;;;;;;4800502;29;20066;-84
2022/09/10 20:36:33;;;;;;;0.88;0.88;;;12.30;99.90;;;;;;4714941;27;20041;-82
2022/09/10 20:39:31;;;;;;;1.30;1.20;;;12.10;99.90;;;;;;4831245;29;20064;-82
2022/09/10 20:43:17;;;;;;;1.90;1.17;;;12.30;99.90;;;;;;4788298;29;20051;-83
2022/09/10 20:47:30;;;;;;;1.67;1.38;;;12.10;99.90;;;;;;4834187;29;20189;-83
2022/09/10 20:51:47;;;;;;;1.30;1.20;;;12.20;99.90;;;;;;4839883;29;20069;-84
2022/09/10 20:55:16;;;;;;;0.90;0.90;;;12.20;99.90;;;;;;4844362;29;20065;-83
2022/09/10 20:57:51;;;;;;;1.05;0.98;;;12.20;99.90;;;;;;4804434;29;20499;-82
2022/09/10 21:05:28;;;;;;;1.60;1.50;;;12.10;99.90;;;;;;4842077;29;20086;-82
2022/09/10 21:08:54;;;;;;;2.95;0.93;;;12.20;99.90;;;;;;4842427;29;20125;-82
2022/09/10 21:12:51;;;;;;;;;;;;;;;;;;;;;
2022/09/10 21:16:46;;;;;;;1.08;1.05;;;12.00;99.90;;;;;;4802543;29;20054;-83
2022/09/10 21:19:37;;;;;;;0.85;0.85;;;12.20;99.90;;;;;;4814089;29;20113;-82
2022/09/10 21:22:08;;;;;;;4.18;2.25;;;12.20;99.90;;;;;;4815322;29;20049;-82
2022/09/10 21:25:11;;;;;;;2.35;1.00;;;12.20;99.90;;;;;;4809052;29;20034;-82
2022/09/10 21:36:53;;;;;;;0.80;0.80;;;12.10;99.90;;;;;;4784114;29;20050;-83
2022/09/10 21:40:15;;;;;;;;;;;;;;;;;;;;;
2022/09/10 21:43:51;;;;;;;4.85;1.35;;;12.10;99.90;;;;;;4854906;29;20056;-82
2022/09/10 21:46:36;;;;;;;0.98;0.93;;;12.10;99.90;;;;;;4866479;29;20049;-82
2022/09/10 21:49:47;;;;;;;1.15;1.10;;;12.20;99.90;;;;;;4811642;29;20162;-83
2022/09/10 21:52:50;;;;;;;1.23;1.20;;;12.20;99.90;;;;;;4755194;30;20054;-83
2022/09/10 21:55:39;;;;;;;1.55;1.02;;;12.20;99.90;;;;;;4750872;30;20494;-83
2022/09/10 21:58:22;;;;;;;1.33;1.23;;;12.20;99.90;;;;;;4775758;30;20051;-83
2022/09/10 22:01:20;;;;;;;1.20;1.10;;;12.20;99.90;;;;;;4771636;29;20074;-83
2022/09/10 22:04:40;;;;;;;0.80;0.80;;;12.20;99.90;;;;;;4790573;29;20406;-81
2022/09/10 22:10:25;;;;;;;1.27;1.17;;;12.20;99.90;;;;;;4761833;29;20047;-83
2022/09/10 22:13:41;;;;;;;8.40;1.45;;;12.30;99.90;;;;;;4814518;29;20063;-82
2022/09/10 22:16:48;;;;;;;1.20;0.80;;;12.20;99.90;;;;;;4844273;29;20056;-81
2022/09/10 22:19:34;;;;;;;1.42;1.15;;;12.20;99.90;;;;;;4843206;29;20598;-81
2022/09/10 22:22:05;;;;;;;2.75;1.00;;;12.50;99.90;;;;;;4839708;29;20503;-81
2022/09/10 22:24:45;;;;;;;1.48;1.38;;;12.30;99.90;;;;;;4854566;29;20060;-83
2022/09/10 22:27:13;;;;;;;1.33;1.27;;;12.20;99.90;;;;;;4848034;29;20057;-82
2022/09/10 22:30:04;;;;;;;1.48;0.90;;;12.30;99.90;;;;;;4863139;29;20045;-82
2022/09/10 22:32:45;;;;;;;1.35;1.25;;;12.30;99.90;;;;;;4847454;29;20045;-81
2022/09/10 22:35:26;;;;;;;1.75;1.10;;;12.40;99.90;;;;;;4834677;29;20054;-81
2022/09/10 22:37:56;;;;;;;2.10;1.92;;;12.30;99.90;;;;;;4850601;29;20057;-82
2022/09/10 22:40:26;;;;;;;;;;;12.30;99.90;;;;;;4848876;29;20044;-82
2022/09/10 22:42:54;;;;;;;1.20;1.00;;;12.30;99.90;;;;;;4829440;29;19924;-82
2022/09/10 22:45:23;;;;;;;1.05;1.05;;;12.30;99.90;;;;;;4832143;29;20550;-81
2022/09/10 22:47:54;;;;;;;1.23;1.20;;;12.30;99.90;;;;;;4818556;29;20060;-82
2022/09/10 22:50:27;;;;;;;1.20;1.13;;;12.30;99.90;;;;;;4842978;29;20084;-81
2022/09/10 22:53:01;;;;;;;8.30;1.35;;;12.30;99.90;;;;;;4863950;29;20057;-81
2022/09/10 22:55:40;;;;;;;1.45;1.30;;;12.30;99.90;;;;;;4829099;29;20045;-81
2022/09/10 22:58:11;;;;;;;1.27;1.27;;;12.30;99.90;;;;;;4831781;29;20046;-81
2022/09/10 23:00:45;;;;;;;1.02;1.02;;;12.30;99.90;;;;;;4831095;29;20046;-81
2022/09/10 23:03:13;;;;;;;2.20;1.08;;;12.30;99.90;;;;;;4848327;29;20065;-81
2022/09/10 23:05:44;;;;;;;1.85;1.25;;;12.30;99.90;;;;;;4849194;29;20049;-82
2022/09/10 23:08:17;;;;;;;1.17;1.17;;;12.30;99.90;;;;;;4840445;29;20053;-82
2022/09/10 23:11:13;;;;;;;1.65;1.13;;;12.10;99.90;;;;;;4839822;29;20072;-81
2022/09/10 23:13:45;;;;;;;0.80;0.80;;;12.30;99.90;;;;;;4826318;29;20041;-82
2022/09/10 23:16:22;;;;;;;2.90;1.45;;;12.30;99.90;;;;;;4863797;29;20057;-82
2022/09/10 23:19:22;;;;;;;3.08;1.30;;;12.30;99.90;;;;;;4847028;29;20049;-82
2022/09/10 23:22:25;;;;;;;1.70;1.42;;;12.20;99.90;;;;;;4845367;29;20064;-82
2022/09/10 23:25:01;;;;;;;2.97;1.13;;;12.30;99.90;;;;;;4848330;29;20046;-82
2022/09/10 23:27:29;;;;;;;1.35;1.25;;;12.30;99.90;;;;;;4857571;29;20060;-81
2022/09/10 23:30:10;;;;;;;1.65;1.30;;;12.30;99.90;;;;;;4878641;29;20037;-82
2022/09/10 23:32:42;;;;;;;1.13;1.02;;;12.30;99.90;;;;;;4843821;29;20052;-81